Time;durP1;ratioP1;P1;durP2;ratioP2;P2;SDS_P1;SDS_P2;PMS_P1;PMS_P2;Temp;Humidity;BMP_temperature;BMP_pressure;BME280_temperature;BME280_humidity;BME280_pressure;Samples;Min_cycle;Max_cycle;Signal;HPM_P1;HPM_P2
2021/10/15 00:01:26;;;;;;;5.50;4.83;;;9.50;99.90;;;;;;5008733;28;20817;-60
2021/10/15 00:03:51;;;;;;;5.10;4.50;;;9.60;99.90;;;;;;5004904;28;20441;-60
2021/10/15 00:06:17;;;;;;;7.63;5.33;;;9.50;99.90;;;;;;5009653;28;20192;-59
2021/10/15 00:08:43;;;;;;;6.10;5.43;;;9.60;99.90;;;;;;4984865;28;20677;-60
2021/10/15 00:11:09;;;;;;;6.93;5.30;;;9.50;99.90;;;;;;5010689;28;20440;-66
2021/10/15 00:13:34;;;;;;;5.53;5.03;;;9.60;99.90;;;;;;5009469;28;20603;-66
2021/10/15 00:16:00;;;;;;;5.80;4.87;;;9.60;99.90;;;;;;5006938;28;20220;-66
2021/10/15 00:18:26;;;;;;;8.13;5.90;;;9.70;99.90;;;;;;5006146;28;20751;-67
2021/10/15 00:20:52;;;;;;;8.37;5.40;;;9.60;99.90;;;;;;5011438;28;20193;-65
2021/10/15 00:23:17;;;;;;;5.90;4.80;;;9.70;99.90;;;;;;5007630;28;20215;-66
2021/10/15 00:25:43;;;;;;;7.37;5.33;;;9.70;99.90;;;;;;5008580;28;20448;-66
2021/10/15 00:28:09;;;;;;;7.33;5.77;;;9.60;99.90;;;;;;5005819;28;20607;-65
2021/10/15 00:30:34;;;;;;;7.63;5.40;;;9.60;99.90;;;;;;5003518;28;20193;-67
2021/10/15 00:33:00;;;;;;;6.93;5.30;;;9.50;99.90;;;;;;5010943;28;20569;-67
2021/10/15 00:35:26;;;;;;;6.83;5.07;;;9.60;99.90;;;;;;5004350;28;20813;-66
2021/10/15 00:37:51;;;;;;;6.40;4.67;;;9.70;99.90;;;;;;5007122;28;20217;-66
2021/10/15 00:40:18;;;;;;;7.80;4.83;;;9.50;99.90;;;;;;5008592;28;20674;-66
2021/10/15 00:42:44;;;;;;;6.50;5.10;;;9.30;99.90;;;;;;5008526;28;20193;-67
2021/10/15 00:45:10;;;;;;;8.53;6.30;;;9.30;99.90;;;;;;5006766;28;20524;-66
2021/10/15 00:47:36;;;;;;;5.77;4.97;;;9.20;99.90;;;;;;5010627;28;20617;-67
2021/10/15 00:50:03;;;;;;;9.13;6.13;;;9.30;99.90;;;;;;5004050;28;20453;-67
2021/10/15 00:52:29;;;;;;;6.40;5.40;;;9.50;99.90;;;;;;5005113;28;20313;-67
2021/10/15 00:54:55;;;;;;;7.27;5.60;;;9.60;99.90;;;;;;5007707;28;20432;-66
2021/10/15 00:57:21;;;;;;;6.13;4.73;;;9.70;99.90;;;;;;5002009;28;20486;-66
2021/10/15 00:59:47;;;;;;;7.27;5.60;;;9.50;99.90;;;;;;5006520;28;20454;-66
2021/10/15 01:02:13;;;;;;;6.97;5.20;;;9.40;99.90;;;;;;5003067;28;20204;-67
2021/10/15 01:04:39;;;;;;;6.33;5.73;;;9.50;99.90;;;;;;5003249;28;20196;-67
2021/10/15 01:07:05;;;;;;;6.60;4.93;;;9.40;99.90;;;;;;5009808;28;21050;-66
2021/10/15 01:09:31;;;;;;;6.20;4.70;;;9.50;99.90;;;;;;5006585;28;20519;-65
2021/10/15 01:11:59;;;;;;;6.87;5.00;;;9.50;99.90;;;;;;5006907;28;20488;-66
2021/10/15 01:14:25;;;;;;;6.90;5.10;;;9.50;99.90;;;;;;5002735;28;20783;-66
2021/10/15 01:16:51;;;;;;;7.70;5.30;;;9.50;99.90;;;;;;5004713;28;20435;-66
2021/10/15 01:19:16;;;;;;;7.60;5.30;;;9.70;99.90;;;;;;5006342;28;20736;-66
2021/10/15 01:21:42;;;;;;;6.60;5.10;;;9.60;99.90;;;;;;5005289;28;20619;-66
2021/10/15 01:24:07;;;;;;;6.40;5.03;;;9.40;99.90;;;;;;5005933;28;20425;-66
2021/10/15 01:26:33;;;;;;;10.70;5.07;;;9.30;99.90;;;;;;5011624;28;20193;-66
2021/10/15 01:28:59;;;;;;;5.80;5.20;;;9.40;99.90;;;;;;5010005;28;20227;-66
2021/10/15 01:31:27;;;;;;;8.37;5.20;;;9.50;99.90;;;;;;5007188;28;20252;-66
2021/10/15 01:33:58;;;;;;;9.40;5.40;;;9.50;99.90;;;;;;5012289;28;20192;-65
2021/10/15 01:36:24;;;;;;;8.93;5.00;;;9.40;99.90;;;;;;5010314;28;20443;-66
2021/10/15 01:38:50;;;;;;;8.73;5.20;;;9.50;99.90;;;;;;5006147;28;20473;-66
2021/10/15 01:41:15;;;;;;;6.20;5.33;;;9.40;99.90;;;;;;5012503;28;20434;-66
2021/10/15 01:43:41;;;;;;;6.50;5.40;;;9.20;99.90;;;;;;5010444;28;20205;-67
2021/10/15 01:46:06;;;;;;;5.37;4.77;;;9.40;99.90;;;;;;5009490;28;20203;-67
2021/10/15 01:48:32;;;;;;;6.00;5.40;;;9.30;99.90;;;;;;5010804;28;20248;-66
2021/10/15 01:50:58;;;;;;;7.80;5.30;;;9.40;99.90;;;;;;5008185;28;20189;-67
2021/10/15 01:53:24;;;;;;;6.60;4.93;;;9.60;99.90;;;;;;5006328;28;20189;-66
2021/10/15 01:55:49;;;;;;;6.30;5.30;;;9.50;99.90;;;;;;5008112;28;20263;-66
2021/10/15 01:58:18;;;;;;;7.13;5.10;;;9.30;99.90;;;;;;5007497;28;21021;-66
2021/10/15 02:00:45;;;;;;;6.90;6.20;;;9.30;99.90;;;;;;5010574;28;20204;-66
2021/10/15 02:03:11;;;;;;;8.67;5.67;;;9.30;99.90;;;;;;5004133;28;20432;-66
2021/10/15 02:05:37;;;;;;;7.47;5.50;;;9.20;99.90;;;;;;5009190;28;20446;-66
2021/10/15 02:08:02;;;;;;;7.50;6.00;;;9.30;99.90;;;;;;5011931;28;20224;-67
2021/10/15 02:10:28;;;;;;;7.43;5.43;;;9.30;99.90;;;;;;5008855;28;20443;-67
2021/10/15 02:12:54;;;;;;;7.60;5.73;;;9.50;99.90;;;;;;5009234;28;20991;-66
2021/10/15 02:15:20;;;;;;;6.07;5.50;;;9.40;99.90;;;;;;5015177;28;20256;-66
2021/10/15 02:17:45;;;;;;;6.63;6.03;;;9.30;99.90;;;;;;5006221;28;20481;-66
2021/10/15 02:20:13;;;;;;;8.70;4.83;;;9.20;99.90;;;;;;4992548;28;20272;-67
2021/10/15 02:22:44;;;;;;;7.00;4.67;;;9.10;99.90;;;;;;5009765;28;20185;-66
2021/10/15 02:25:12;;;;;;;5.87;5.13;;;9.00;99.90;;;;;;5006270;28;20444;-66
2021/10/15 02:27:38;;;;;;;8.20;5.27;;;9.10;99.90;;;;;;5009488;28;21152;-67
2021/10/15 02:30:06;;;;;;;5.60;4.43;;;9.20;99.90;;;;;;5007662;28;20562;-66
2021/10/15 02:32:32;;;;;;;6.10;4.97;;;9.30;99.90;;;;;;5009476;28;20208;-66
2021/10/15 02:34:57;;;;;;;5.70;4.80;;;9.40;99.90;;;;;;5008821;28;20448;-65
2021/10/15 02:37:23;;;;;;;7.70;5.23;;;9.40;99.90;;;;;;4993588;28;20717;-66
2021/10/15 02:39:49;;;;;;;7.70;4.97;;;9.30;99.90;;;;;;5008750;28;20197;-66
2021/10/15 02:42:15;;;;;;;5.80;5.07;;;9.20;99.90;;;;;;5011417;28;20190;-66
2021/10/15 02:44:41;;;;;;;7.30;5.37;;;8.90;99.90;;;;;;5004104;28;20679;-67
2021/10/15 02:47:07;;;;;;;5.33;4.20;;;8.90;99.90;;;;;;5008439;28;20194;-67
2021/10/15 02:49:32;;;;;;;5.30;4.33;;;8.80;99.90;;;;;;5007343;28;20570;-67
2021/10/15 02:51:58;;;;;;;6.33;4.43;;;8.70;99.90;;;;;;5007657;28;20883;-67
2021/10/15 02:54:23;;;;;;;4.57;4.10;;;8.60;99.90;;;;;;4988313;28;20612;-67
2021/10/15 02:56:49;;;;;;;5.10;4.00;;;8.60;99.90;;;;;;5003291;28;20208;-65
2021/10/15 02:59:15;;;;;;;4.60;3.97;;;8.80;99.90;;;;;;5009238;28;20212;-67
2021/10/15 03:01:40;;;;;;;4.97;4.27;;;8.70;99.90;;;;;;5003647;28;20232;-66
2021/10/15 03:04:06;;;;;;;5.70;4.00;;;8.70;99.90;;;;;;5009710;28;20276;-66
2021/10/15 03:06:33;;;;;;;7.53;5.20;;;8.90;99.90;;;;;;5004322;28;20201;-66
2021/10/15 03:08:59;;;;;;;4.00;3.60;;;8.70;99.90;;;;;;5008351;28;20236;-67
2021/10/15 03:11:24;;;;;;;8.50;4.67;;;8.70;99.90;;;;;;5011518;28;20530;-66
2021/10/15 03:13:50;;;;;;;4.70;3.90;;;8.70;99.90;;;;;;5006091;28;20212;-66
2021/10/15 03:16:16;;;;;;;5.57;4.33;;;8.80;99.90;;;;;;5010824;28;20184;-65
2021/10/15 03:18:41;;;;;;;6.10;4.50;;;8.60;99.90;;;;;;5002467;28;20221;-66
2021/10/15 03:21:07;;;;;;;4.73;4.23;;;8.70;99.90;;;;;;5010808;28;20192;-66
2021/10/15 03:23:33;;;;;;;7.57;4.47;;;8.70;99.90;;;;;;5007332;28;20195;-66
2021/10/15 03:25:58;;;;;;;7.73;4.03;;;8.50;99.90;;;;;;5005629;28;20731;-66
2021/10/15 03:28:24;;;;;;;6.03;4.30;;;8.40;99.90;;;;;;5008018;28;20220;-67
2021/10/15 03:30:50;;;;;;;6.50;4.57;;;8.50;99.90;;;;;;5002288;28;20270;-66
2021/10/15 03:33:16;;;;;;;5.53;4.23;;;8.60;99.90;;;;;;5009320;28;20415;-67
2021/10/15 03:35:41;;;;;;;5.47;4.43;;;8.40;99.90;;;;;;5005051;28;20899;-67
2021/10/15 03:38:07;;;;;;;6.80;4.47;;;8.40;99.90;;;;;;5006000;28;20296;-66
2021/10/15 03:40:32;;;;;;;6.43;5.07;;;8.30;99.90;;;;;;5009601;28;20193;-66
2021/10/15 03:42:58;;;;;;;5.60;4.03;;;8.30;99.90;;;;;;5003385;28;20235;-65
2021/10/15 03:45:24;;;;;;;5.23;4.20;;;8.50;99.90;;;;;;4977856;28;20203;-67
2021/10/15 03:47:49;;;;;;;5.67;4.20;;;8.60;99.90;;;;;;5005050;28;20213;-67
2021/10/15 03:50:15;;;;;;;5.03;4.53;;;8.60;99.90;;;;;;5007153;28;20201;-67
2021/10/15 03:52:41;;;;;;;6.23;4.50;;;8.50;99.90;;;;;;5007993;28;20184;-66
2021/10/15 03:55:12;;;;;;;4.60;3.87;;;8.50;99.90;;;;;;5005425;28;20256;-66
2021/10/15 03:57:38;;;;;;;5.10;4.50;;;8.30;99.90;;;;;;4990196;28;20205;-66
2021/10/15 04:00:06;;;;;;;6.20;4.30;;;8.30;99.90;;;;;;4999774;28;20453;-67
2021/10/15 04:02:31;;;;;;;5.03;3.97;;;8.30;99.90;;;;;;5004276;28;20527;-66
2021/10/15 04:04:57;;;;;;;4.70;4.03;;;8.40;99.90;;;;;;5004380;28;20527;-67
2021/10/15 04:07:22;;;;;;;5.60;4.83;;;8.30;99.90;;;;;;4988568;28;20267;-67
2021/10/15 04:09:51;;;;;;;6.20;4.97;;;8.20;99.90;;;;;;5006664;28;20541;-66
2021/10/15 04:12:16;;;;;;;5.60;3.80;;;8.00;99.90;;;;;;5005852;28;20312;-67
2021/10/15 04:14:42;;;;;;;5.93;4.37;;;8.20;99.90;;;;;;5005620;28;20527;-66
2021/10/15 04:17:08;;;;;;;6.23;4.57;;;8.30;99.90;;;;;;5004069;28;20197;-66
2021/10/15 04:19:33;;;;;;;6.47;4.47;;;8.20;99.90;;;;;;4993426;28;20185;-66
2021/10/15 04:21:59;;;;;;;5.10;4.53;;;8.30;99.90;;;;;;5005174;28;20245;-65
2021/10/15 04:24:25;;;;;;;5.20;4.70;;;8.30;99.90;;;;;;5006169;28;20196;-67
2021/10/15 04:26:50;;;;;;;5.10;4.67;;;8.40;99.90;;;;;;5005674;28;20255;-66
2021/10/15 04:29:16;;;;;;;6.77;5.37;;;8.20;99.90;;;;;;5001215;28;20217;-66
2021/10/15 04:31:41;;;;;;;6.30;4.93;;;8.10;99.90;;;;;;5005632;28;20189;-66
2021/10/15 04:34:07;;;;;;;7.10;5.23;;;8.00;99.90;;;;;;5005408;28;21058;-63
2021/10/15 04:36:33;;;;;;;6.23;5.60;;;8.10;99.90;;;;;;5007167;28;20181;-63
2021/10/15 04:38:58;;;;;;;7.03;5.33;;;8.00;99.90;;;;;;5004101;28;20212;-63
2021/10/15 04:41:24;;;;;;;7.10;6.00;;;7.90;99.90;;;;;;5002270;28;20291;-63
2021/10/15 04:43:50;;;;;;;7.53;6.13;;;7.90;99.90;;;;;;5005519;28;20197;-63
2021/10/15 04:46:15;;;;;;;10.00;5.70;;;7.90;99.90;;;;;;4985877;28;20193;-65
2021/10/15 04:48:41;;;;;;;8.53;6.20;;;7.90;99.90;;;;;;5006700;28;20723;-65
2021/10/15 04:51:07;;;;;;;7.20;5.17;;;7.80;99.90;;;;;;5007487;28;20177;-64
2021/10/15 04:53:32;;;;;;;13.27;6.70;;;7.90;99.90;;;;;;5001911;28;20193;-63
2021/10/15 04:55:58;;;;;;;7.20;5.47;;;7.70;99.90;;;;;;5006522;28;20595;-66
2021/10/15 04:58:24;;;;;;;7.13;6.33;;;7.90;99.90;;;;;;5003399;28;20497;-67
2021/10/15 05:00:50;;;;;;;7.07;6.20;;;7.80;99.90;;;;;;5016491;28;20192;-67
2021/10/15 05:03:15;;;;;;;6.93;5.80;;;7.80;99.90;;;;;;5007114;28;21710;-67
2021/10/15 05:05:42;;;;;;;8.43;6.70;;;7.90;99.90;;;;;;5009842;28;20197;-65
2021/10/15 05:08:10;;;;;;;6.90;5.97;;;7.80;99.90;;;;;;5014563;28;20238;-65
2021/10/15 05:10:39;;;;;;;10.50;7.00;;;7.90;99.90;;;;;;5006291;28;20463;-64
2021/10/15 05:13:05;;;;;;;7.47;6.10;;;7.80;99.90;;;;;;4994872;28;20997;-64
2021/10/15 05:15:31;;;;;;;7.17;6.40;;;7.80;99.90;;;;;;5007680;28;20439;-62
2021/10/15 05:17:56;;;;;;;6.20;5.60;;;7.70;99.90;;;;;;5006355;28;20228;-65
2021/10/15 05:20:22;;;;;;;8.67;7.00;;;7.70;99.90;;;;;;5010846;28;20283;-65
2021/10/15 05:22:48;;;;;;;8.03;7.00;;;7.80;99.90;;;;;;5007396;28;20222;-64
2021/10/15 05:25:14;;;;;;;8.37;6.40;;;7.80;99.90;;;;;;5010605;28;20510;-66
2021/10/15 05:27:40;;;;;;;8.73;6.80;;;7.80;99.90;;;;;;5004449;28;20471;-67
2021/10/15 05:30:07;;;;;;;11.57;7.00;;;7.60;99.90;;;;;;5012352;28;20452;-61
2021/10/15 05:32:34;;;;;;;10.73;6.30;;;7.60;99.90;;;;;;5008286;28;20223;-61
2021/10/15 05:35:00;;;;;;;7.60;6.30;;;7.60;99.90;;;;;;5007576;28;20878;-61
2021/10/15 05:37:26;;;;;;;8.80;6.73;;;7.80;99.90;;;;;;5011141;28;20466;-65
2021/10/15 05:39:52;;;;;;;10.17;6.90;;;8.00;99.90;;;;;;5002934;28;20201;-68
2021/10/15 05:42:17;;;;;;;10.50;6.60;;;8.10;99.90;;;;;;5010716;28;20189;-67
2021/10/15 05:44:43;;;;;;;7.63;6.40;;;8.10;99.90;;;;;;5005159;28;20872;-66
2021/10/15 05:47:09;;;;;;;8.57;6.50;;;8.10;99.90;;;;;;5011074;28;20208;-65
2021/10/15 05:49:39;;;;;;;7.50;6.30;;;8.20;99.90;;;;;;5012571;28;20184;-62
2021/10/15 05:52:14;;;;;;;8.13;6.40;;;7.90;99.90;;;;;;5003889;28;20455;-60
2021/10/15 05:55:06;;;;;;;11.10;7.40;;;7.80;99.90;;;;;;5006455;28;20933;-67
2021/10/15 06:00:01;;;;;;;8.60;6.63;;;8.00;99.90;;;;;;5003365;28;20466;-65
2021/10/15 06:02:32;;;;;;;11.57;7.80;;;7.80;99.90;;;;;;5013540;28;20446;-61
2021/10/15 06:15:46;;;;;;;12.70;7.60;;;7.90;99.90;;;;;;5005440;28;20444;-59
2021/10/15 06:18:18;;;;;;;9.80;7.60;;;7.90;99.90;;;;;;5011599;28;20455;-60
2021/10/15 06:20:44;;;;;;;13.10;7.90;;;8.00;99.90;;;;;;4986251;28;20438;-66
2021/10/15 06:23:10;;;;;;;11.30;8.47;;;7.90;99.90;;;;;;5011670;28;20496;-60
2021/10/15 06:25:36;;;;;;;13.77;9.13;;;7.90;99.90;;;;;;5004896;28;20943;-67
2021/10/15 06:28:03;;;;;;;11.07;8.10;;;7.90;99.90;;;;;;5005204;28;20475;-63
2021/10/15 06:30:30;;;;;;;12.93;8.20;;;7.90;99.90;;;;;;4990000;28;20455;-63
2021/10/15 06:32:57;;;;;;;9.07;7.80;;;7.90;99.90;;;;;;5007303;28;20495;-65
2021/10/15 06:35:22;;;;;;;11.70;8.20;;;7.90;99.90;;;;;;5007821;28;20790;-63
2021/10/15 06:37:48;;;;;;;12.97;8.97;;;7.90;99.90;;;;;;5003865;28;20463;-67
2021/10/15 06:40:15;;;;;;;10.67;7.93;;;7.80;99.90;;;;;;5008929;28;20196;-63
2021/10/15 06:42:41;;;;;;;9.97;8.00;;;7.90;99.90;;;;;;5007449;28;20535;-61
2021/10/15 06:45:07;;;;;;;10.00;7.87;;;7.90;99.90;;;;;;4989093;28;20527;-65
2021/10/15 06:47:33;;;;;;;15.10;9.77;;;7.90;99.90;;;;;;5009434;28;20467;-65
2021/10/15 06:49:58;;;;;;;11.23;8.60;;;7.90;99.90;;;;;;5000923;28;20466;-60
2021/10/15 06:52:24;;;;;;;11.60;8.40;;;8.00;99.90;;;;;;5010023;28;20556;-66
2021/10/15 06:54:51;;;;;;;13.00;7.83;;;8.00;99.90;;;;;;4999245;28;20628;-66
2021/10/15 06:57:17;;;;;;;10.53;7.67;;;8.00;99.90;;;;;;5007559;28;20192;-64
2021/10/15 06:59:43;;;;;;;10.10;7.97;;;8.00;99.90;;;;;;5008141;28;20450;-65
2021/10/15 07:02:09;;;;;;;11.40;9.17;;;8.00;99.90;;;;;;5006883;28;20519;-64
2021/10/15 07:04:35;;;;;;;12.40;9.53;;;7.90;99.90;;;;;;5009503;28;20507;-63
2021/10/15 07:07:00;;;;;;;12.40;8.50;;;8.00;99.90;;;;;;5002199;28;20986;-66
2021/10/15 07:09:27;;;;;;;9.03;7.43;;;8.00;99.90;;;;;;5008843;28;20483;-61
2021/10/15 07:11:56;;;;;;;13.03;8.60;;;8.00;99.90;;;;;;5003644;28;20198;-63
2021/10/15 07:14:22;;;;;;;12.43;9.27;;;8.00;99.90;;;;;;5005205;28;20432;-60
2021/10/15 07:16:47;;;;;;;9.97;8.00;;;8.00;99.90;;;;;;5005838;28;20791;-61
2021/10/15 07:19:13;;;;;;;13.60;9.60;;;7.90;99.90;;;;;;5006077;28;20223;-66
2021/10/15 07:21:39;;;;;;;11.70;8.10;;;8.00;99.90;;;;;;5006689;28;20531;-67
2021/10/15 07:24:05;;;;;;;14.27;8.00;;;8.10;99.90;;;;;;5005147;28;20483;-64
2021/10/15 07:26:31;;;;;;;9.97;7.47;;;8.20;99.90;;;;;;5006064;28;20435;-67
2021/10/15 07:28:57;;;;;;;10.40;7.47;;;8.20;99.90;;;;;;5005165;28;20487;-64
2021/10/15 07:31:23;;;;;;;9.27;7.47;;;8.20;99.90;;;;;;5004394;28;20452;-65
2021/10/15 07:33:49;;;;;;;10.97;8.07;;;8.30;99.90;;;;;;5007736;28;20193;-65
2021/10/15 07:36:15;;;;;;;13.70;8.73;;;8.30;99.90;;;;;;5003447;28;20234;-66
2021/10/15 07:38:40;;;;;;;9.03;8.13;;;8.20;99.90;;;;;;5003341;28;20585;-60
2021/10/15 07:41:07;;;;;;;9.50;8.30;;;8.40;99.90;;;;;;5003962;28;20447;-66
2021/10/15 07:43:33;;;;;;;9.33;8.33;;;8.40;99.90;;;;;;5005495;28;20574;-65
2021/10/15 07:45:59;;;;;;;10.60;8.27;;;8.40;99.90;;;;;;5004790;28;21718;-62
2021/10/15 07:48:24;;;;;;;12.87;7.80;;;8.40;99.90;;;;;;5002767;28;20511;-62
2021/10/15 07:50:50;;;;;;;9.43;8.30;;;8.40;99.90;;;;;;5005497;28;20185;-62
2021/10/15 07:53:16;;;;;;;12.03;8.00;;;8.30;99.90;;;;;;5003971;28;20192;-62
2021/10/15 07:55:42;;;;;;;8.03;7.23;;;8.40;99.90;;;;;;5003476;28;20459;-61
2021/10/15 07:58:08;;;;;;;11.27;8.13;;;8.40;99.90;;;;;;5006218;28;20210;-63
2021/10/15 08:00:36;;;;;;;12.37;9.27;;;8.40;99.90;;;;;;5006118;28;20579;-60
2021/10/15 08:03:02;;;;;;;10.17;8.10;;;8.50;99.90;;;;;;5003462;28;20477;-60
2021/10/15 08:05:27;;;;;;;9.10;7.63;;;8.50;99.90;;;;;;4987519;28;20464;-67
2021/10/15 08:07:53;;;;;;;11.37;8.07;;;8.60;99.90;;;;;;5005814;28;20486;-66
2021/10/15 08:10:20;;;;;;;10.53;7.57;;;8.60;99.90;;;;;;5005646;28;20214;-66
2021/10/15 08:12:45;;;;;;;9.90;7.60;;;8.60;99.90;;;;;;4998676;28;20858;-67
2021/10/15 08:15:13;;;;;;;10.40;7.93;;;8.70;99.90;;;;;;5002733;28;20188;-63
2021/10/15 08:17:39;;;;;;;8.80;7.57;;;8.80;99.90;;;;;;5003610;28;20823;-64
2021/10/15 08:20:07;;;;;;;14.50;9.53;;;8.90;99.90;;;;;;5001928;28;20515;-65
2021/10/15 08:22:32;;;;;;;14.50;8.80;;;9.00;99.90;;;;;;5005041;28;20235;-64
2021/10/15 08:24:58;;;;;;;12.50;9.03;;;9.00;99.90;;;;;;5002774;28;21221;-63
2021/10/15 08:27:24;;;;;;;10.60;8.53;;;9.10;99.90;;;;;;5002785;28;20468;-63
2021/10/15 08:29:49;;;;;;;17.20;8.27;;;9.20;99.90;;;;;;4999514;28;20263;-64
2021/10/15 08:32:15;;;;;;;12.70;9.03;;;9.30;99.90;;;;;;4982180;28;20205;-66
2021/10/15 08:34:41;;;;;;;10.53;8.60;;;9.30;99.90;;;;;;4998276;28;20287;-60
2021/10/15 08:37:06;;;;;;;18.97;8.60;;;9.40;99.90;;;;;;5001099;28;20212;-64
2021/10/15 08:39:35;;;;;;;10.33;7.90;;;9.50;99.90;;;;;;5001343;28;20201;-66
2021/10/15 08:42:01;;;;;;;10.60;7.47;;;9.60;99.90;;;;;;4988239;28;20200;-66
2021/10/15 08:44:38;;;;;;;13.00;8.93;;;9.70;99.90;;;;;;5001485;28;20482;-66
2021/10/15 08:47:05;;;;;;;10.60;7.67;;;9.80;99.90;;;;;;5000568;28;20444;-64
2021/10/15 08:49:31;;;;;;;8.60;6.53;;;9.90;99.90;;;;;;5004069;28;20478;-64
2021/10/15 08:51:57;;;;;;;10.27;7.40;;;10.00;99.90;;;;;;5002316;28;20448;-65
2021/10/15 08:54:23;;;;;;;9.80;7.27;;;10.00;99.90;;;;;;5000425;28;21017;-64
2021/10/15 08:56:49;;;;;;;8.03;7.07;;;10.10;99.90;;;;;;4998828;28;20189;-65
2021/10/15 08:59:19;;;;;;;9.13;7.00;;;10.30;99.90;;;;;;5004576;28;20444;-65
2021/10/15 09:01:48;;;;;;;10.83;6.30;;;10.40;99.90;;;;;;5003131;28;20497;-65
2021/10/15 09:04:20;;;;;;;8.10;7.00;;;10.40;99.90;;;;;;5001049;28;20722;-65
2021/10/15 09:06:49;;;;;;;10.00;7.27;;;10.50;99.90;;;;;;5002257;28;20435;-62
2021/10/15 09:09:27;;;;;;;10.13;7.83;;;10.60;99.90;;;;;;4999496;28;20844;-63
2021/10/15 09:12:13;;;;;;;9.53;7.20;;;10.60;99.90;;;;;;5000775;28;20817;-62
2021/10/15 09:14:39;;;;;;;8.67;6.97;;;10.60;99.90;;;;;;4999445;28;20441;-65
2021/10/15 09:17:16;;;;;;;9.60;7.80;;;10.70;99.90;;;;;;5001020;28;20502;-66
2021/10/15 09:19:47;;;;;;;11.57;7.53;;;10.80;99.90;;;;;;5000139;28;20956;-65
2021/10/15 09:22:13;;;;;;;9.23;7.40;;;10.90;99.90;;;;;;5002913;28;20447;-66
2021/10/15 09:24:59;;;;;;;9.07;7.40;;;11.00;99.90;;;;;;5000285;28;20444;-66
2021/10/15 09:27:45;;;;;;;10.67;8.00;;;11.00;99.90;;;;;;4998308;28;20220;-66
2021/10/15 09:30:18;;;;;;;8.00;6.90;;;11.10;99.90;;;;;;4998462;28;21082;-66
2021/10/15 09:32:47;;;;;;;7.97;7.20;;;11.20;99.90;;;;;;5000247;28;20507;-65
2021/10/15 09:35:15;;;;;;;10.27;7.30;;;11.30;99.90;;;;;;4996525;28;20431;-66
2021/10/15 09:37:43;;;;;;;9.60;7.97;;;11.30;99.90;;;;;;4996773;28;21175;-66
2021/10/15 09:40:10;;;;;;;8.17;6.97;;;11.40;99.90;;;;;;5000298;28;20448;-66
2021/10/15 09:42:45;;;;;;;9.50;7.10;;;11.50;99.90;;;;;;5001637;28;20454;-67
2021/10/15 09:45:15;;;;;;;8.97;7.00;;;11.50;99.90;;;;;;5004191;28;20442;-67
2021/10/15 09:47:49;;;;;;;9.83;7.40;;;11.60;99.90;;;;;;4999075;28;20477;-64
2021/10/15 09:50:17;;;;;;;8.80;7.00;;;11.80;99.90;;;;;;4995128;28;20832;-62
2021/10/15 09:52:44;;;;;;;9.77;6.57;;;11.80;99.90;;;;;;4998156;28;20783;-66
2021/10/15 09:55:15;;;;;;;9.70;7.40;;;11.90;99.90;;;;;;5001038;28;20427;-66
2021/10/15 09:57:44;;;;;;;9.10;6.87;;;11.90;99.90;;;;;;4996596;28;20502;-66
2021/10/15 10:00:13;;;;;;;8.90;7.10;;;12.00;99.90;;;;;;5005139;28;20796;-66
2021/10/15 10:02:39;;;;;;;10.17;6.23;;;12.10;99.90;;;;;;5001984;28;20487;-66
2021/10/15 10:05:13;;;;;;;6.77;6.07;;;12.10;99.90;;;;;;5001135;28;20492;-66
2021/10/15 10:07:43;;;;;;;7.90;6.53;;;12.20;99.90;;;;;;5009312;28;20224;-60
2021/10/15 10:10:11;;;;;;;8.80;6.20;;;12.40;99.90;;;;;;5000552;28;20449;-66
2021/10/15 10:12:38;;;;;;;9.17;6.07;;;12.50;99.90;;;;;;5001726;28;20436;-66
2021/10/15 10:15:07;;;;;;;7.07;5.97;;;12.70;99.90;;;;;;4989423;28;20445;-67
2021/10/15 10:17:38;;;;;;;6.93;6.23;;;12.70;99.90;;;;;;5003253;28;20939;-66
2021/10/15 10:20:10;;;;;;;11.20;6.47;;;12.70;99.90;;;;;;5007529;28;20443;-66
2021/10/15 10:22:41;;;;;;;6.40;5.40;;;12.70;99.90;;;;;;5004740;28;20458;-66
2021/10/15 10:25:10;;;;;;;9.57;6.23;;;12.70;99.90;;;;;;5009072;28;20454;-66
2021/10/15 10:27:35;;;;;;;6.73;6.13;;;12.60;99.90;;;;;;5001288;28;20519;-66
2021/10/15 10:30:01;;;;;;;8.73;6.87;;;12.70;99.90;;;;;;5007797;28;20476;-66
2021/10/15 10:32:28;;;;;;;8.43;6.50;;;12.70;99.90;;;;;;5002788;28;20812;-64
2021/10/15 10:34:54;;;;;;;6.30;5.70;;;12.90;99.90;;;;;;5002591;28;20197;-63
2021/10/15 10:37:23;;;;;;;8.47;6.80;;;13.00;99.90;;;;;;5008827;28;20443;-63
2021/10/15 10:40:05;;;;;;;8.30;7.50;;;13.10;99.90;;;;;;5006518;28;20519;-62
2021/10/15 10:42:31;;;;;;;6.27;5.67;;;13.20;99.90;;;;;;5010740;28;20851;-62
2021/10/15 10:44:56;;;;;;;7.60;6.60;;;13.50;99.90;;;;;;5006321;28;20444;-63
2021/10/15 10:47:24;;;;;;;7.00;6.17;;;13.70;99.90;;;;;;5008053;28;20717;-63
2021/10/15 10:50:02;;;;;;;10.20;5.20;;;13.90;99.90;;;;;;5005060;28;20196;-64
2021/10/15 10:52:36;;;;;;;8.60;6.60;;;14.10;99.90;;;;;;5001275;28;20463;-62
2021/10/15 10:55:03;;;;;;;5.60;5.00;;;14.00;99.90;;;;;;5004483;28;20520;-63
2021/10/15 10:57:31;;;;;;;8.00;5.80;;;14.20;99.90;;;;;;5002374;28;20466;-63
2021/10/15 11:00:23;;;;;;;6.70;5.67;;;14.20;99.90;;;;;;5003264;28;20448;-63
2021/10/15 11:02:54;;;;;;;8.87;6.43;;;14.30;99.90;;;;;;5006657;28;20452;-64
2021/10/15 11:05:35;;;;;;;8.23;5.70;;;14.50;99.90;;;;;;4990058;28;20959;-64
2021/10/15 11:08:27;;;;;;;7.63;5.83;;;14.60;99.90;;;;;;5006054;28;21117;-62
2021/10/15 11:11:19;;;;;;;7.90;6.07;;;14.80;99.90;;;;;;5006127;28;20430;-62
2021/10/15 11:13:45;;;;;;;6.93;6.23;;;14.70;99.90;;;;;;5000878;28;20432;-63
2021/10/15 11:16:24;;;;;;;8.63;5.77;;;14.50;99.90;;;;;;5007402;28;20480;-63
2021/10/15 11:18:52;;;;;;;6.97;6.13;;;14.70;99.90;;;;;;5004752;28;20196;-63
2021/10/15 11:21:20;;;;;;;10.53;7.67;;;14.90;99.90;;;;;;5006159;28;20444;-63
2021/10/15 11:23:47;;;;;;;7.83;6.03;;;14.70;99.90;;;;;;5008672;28;20794;-64
2021/10/15 11:26:12;;;;;;;7.43;6.70;;;14.60;99.90;;;;;;5003217;28;20858;-62
2021/10/15 11:28:38;;;;;;;8.90;5.77;;;14.70;99.90;;;;;;5009049;28;20475;-63
2021/10/15 11:31:08;;;;;;;9.53;6.73;;;15.00;99.90;;;;;;5005129;28;20550;-63
2021/10/15 11:33:38;;;;;;;9.13;5.50;;;15.10;99.90;;;;;;5008626;28;20221;-63
2021/10/15 11:36:05;;;;;;;8.80;5.17;;;15.40;99.90;;;;;;5004807;28;20444;-63
2021/10/15 11:38:31;;;;;;;6.80;6.10;;;15.10;99.90;;;;;;5006535;28;20928;-64
2021/10/15 11:40:59;;;;;;;6.63;5.93;;;15.20;99.90;;;;;;5007440;28;20438;-63
2021/10/15 11:43:32;;;;;;;12.10;5.97;;;15.50;99.90;;;;;;5004003;28;20189;-63
2021/10/15 11:46:04;;;;;;;7.70;6.33;;;15.90;99.90;;;;;;4992618;28;20515;-63
2021/10/15 11:48:39;;;;;;;7.17;6.10;;;15.80;99.90;;;;;;5004021;28;20467;-65
2021/10/15 11:51:19;;;;;;;7.77;5.43;;;16.00;99.90;;;;;;5010079;28;20431;-65
2021/10/15 11:53:47;;;;;;;11.33;5.60;;;15.90;99.90;;;;;;5005790;28;20522;-67
2021/10/15 11:56:18;;;;;;;8.63;6.47;;;15.70;99.90;;;;;;5002379;28;20440;-61
2021/10/15 11:58:55;;;;;;;8.03;5.80;;;15.40;99.90;;;;;;5008486;28;21028;-61
2021/10/15 12:01:28;;;;;;;7.40;5.97;;;15.20;99.90;;;;;;5001298;28;20448;-61
2021/10/15 12:03:55;;;;;;;10.77;5.37;;;15.10;99.90;;;;;;5005040;28;20440;-61
2021/10/15 12:06:26;;;;;;;6.53;5.70;;;15.30;99.90;;;;;;5000723;28;20482;-61
2021/10/15 12:08:57;;;;;;;6.07;4.83;;;15.10;99.90;;;;;;5004335;28;20499;-60
2021/10/15 12:12:04;;;;;;;5.47;4.90;;;15.10;99.90;;;;;;5006420;28;20436;-62
2021/10/15 12:14:32;;;;;;;8.17;4.83;;;15.10;99.90;;;;;;5003998;28;21178;-61
2021/10/15 12:17:09;;;;;;;8.13;5.57;;;15.20;99.90;;;;;;5004635;28;20452;-61
2021/10/15 12:19:38;;;;;;;5.23;4.47;;;15.30;99.90;;;;;;5003595;28;20432;-61
2021/10/15 12:22:11;;;;;;;8.33;5.20;;;15.80;99.90;;;;;;5003201;28;20832;-61
2021/10/15 12:24:43;;;;;;;7.70;5.17;;;15.70;99.90;;;;;;5003349;28;21093;-61
2021/10/15 12:27:14;;;;;;;7.57;5.30;;;15.60;99.90;;;;;;5002766;28;20565;-62
2021/10/15 12:30:02;;;;;;;5.83;4.73;;;15.70;99.90;;;;;;5001743;28;20460;-61
2021/10/15 12:32:32;;;;;;;5.70;4.97;;;15.70;99.90;;;;;;5003317;28;20452;-61
2021/10/15 12:35:10;;;;;;;7.20;5.60;;;16.20;99.90;;;;;;5001512;28;20478;-62
2021/10/15 12:37:43;;;;;;;6.70;5.97;;;16.40;99.90;;;;;;4999848;28;20464;-61
2021/10/15 12:40:21;;;;;;;6.90;5.40;;;17.00;99.90;;;;;;4978763;28;20442;-61
2021/10/15 12:43:09;;;;;;;4.90;4.40;;;17.40;99.90;;;;;;5003897;28;20479;-61
2021/10/15 12:45:35;;;;;;;5.30;4.80;;;17.80;99.90;;;;;;4999643;28;20456;-61
2021/10/15 12:48:20;;;;;;;6.60;4.47;;;18.10;99.90;;;;;;4997859;28;20550;-61
2021/10/15 12:50:59;;;;;;;5.53;5.03;;;18.40;99.90;;;;;;5000686;28;20424;-61
2021/10/15 12:53:25;;;;;;;9.90;5.17;;;18.40;99.90;;;;;;4999241;28;20464;-61
2021/10/15 12:55:55;;;;;;;5.90;4.67;;;18.50;99.90;;;;;;4999455;28;20478;-61
2021/10/15 12:58:25;;;;;;;9.80;6.03;;;18.30;99.90;;;;;;5002785;28;20943;-61
2021/10/15 13:01:00;;;;;;;6.30;4.80;;;18.10;99.90;;;;;;4997861;28;20436;-61
2021/10/15 13:03:26;;;;;;;6.70;5.30;;;17.70;99.90;;;;;;4981750;28;20444;-60
2021/10/15 13:05:55;;;;;;;5.87;4.73;;;17.50;99.90;;;;;;4996914;28;20467;-60
2021/10/15 13:08:21;;;;;;;6.03;5.03;;;17.40;99.90;;;;;;4998794;28;20479;-61